Impacts TAF Board
For situational awareness. Not to be used for flight planning purposes.
IDs:

KPGV - Greenville/Pitt Arpt, NC, US

Issued at 0537 UTC 22 Oct 2021
Updated at 0538 UTC 22 Oct 2021
Potential Impact None Slight Moderate High
Time0535Z 22/06Z 22/07Z 22/08Z 22/09Z 22/10Z 22/11Z 22/12Z 22/13Z 22/14Z 22/15Z 22/16Z 22/17Z 22/18Z>>
Type OBS PRVL PRVL PRVL PRVL PRVL PRVL PRVL PRVL PRVL PRVL PRVL PRVL PRVL
VIS 10 >6 >6 >6 >6 >6 >6 >6 >6 >6 >6 >6 >6 >6
CIG -- -- -- -- -- -- -- -- -- 40 40 40 40 40
Cover SCT SCT SCT SCT SCT SCT SCT SCT SCT BKN BKN BKN BKN BKN
FltCat VFR VFR VFR VFR VFR VFR VFR VFR VFR VFR VFR VFR VFR VFR
WX -- -- -- -- -- -- -- -- -- -- -- -- -- --
WDir 210 210 210 210 210 210 210 210 210 230 230 230 230 230
WSpd 7 8 8 8 8 8 8 8 8 8 8 8 8 8
WGst -- -- -- -- -- -- -- -- -- 14 14 14 14 14
Raw TAF
KPGV 220537Z 2206/2306 21008KT P6SM SCT080
  FM221400 23008G14KT P6SM BKN040
  FM221900 28008KT P6SM VCSH SCT050 AMD LTD TO CLD VIS AND WIND


Raw METAR
KPGV 220535Z AUTO 21007KT 10SM SCT085 20/16 A3002 RMK AO2
KPGV 220515Z AUTO 22008KT 10SM SCT085 20/16 A3003 RMK AO2
KPGV 220455Z AUTO 22006KT 10SM SCT085 20/16 A3003 RMK AO2
KPGV 220435Z AUTO 20008KT 10SM CLR 19/16 A3003 RMK AO2
KPGV 220415Z AUTO 21006KT 10SM CLR 19/15 A3005 RMK AO2
KPGV 220355Z AUTO 21007KT 10SM CLR 19/15 A3005 RMK AO2
KPGV 220335Z AUTO 22006KT 10SM CLR 18/15 A3006 RMK AO2
KPGV 220315Z AUTO 21008KT 10SM CLR 19/15 A3005 RMK AO2
KPGV 220255Z AUTO 20007KT 10SM CLR 19/14 A3005 RMK AO2
KPGV 220235Z AUTO 21009KT 10SM CLR 20/14 A3006 RMK AO2

METAR Board
Radar Display
Forecast Discussion
For situational awareness. Not to be used for flight planning purposes.